sensor_id;sensor_type;location;lat;lon;timestamp;P1;durP1;ratioP1;P2;durP2;ratioP2
55913;SDS011;58179;48.776;9.124;2023-08-07T00:02:19;23.25;;;7.70;;
55913;SDS011;58179;48.776;9.124;2023-08-07T00:04:45;25.67;;;8.45;;
55913;SDS011;58179;48.776;9.124;2023-08-07T00:07:11;20.53;;;7.83;;
55913;SDS011;58179;48.776;9.124;2023-08-07T00:09:39;23.75;;;7.70;;
55913;SDS011;58179;48.776;9.124;2023-08-07T00:12:05;19.90;;;8.00;;
55913;SDS011;58179;48.776;9.124;2023-08-07T00:14:31;22.25;;;7.80;;
55913;SDS011;58179;48.776;9.124;2023-08-07T00:16:57;21.02;;;7.38;;
55913;SDS011;58179;48.776;9.124;2023-08-07T00:19:23;20.65;;;7.70;;
55913;SDS011;58179;48.776;9.124;2023-08-07T00:21:50;22.23;;;8.13;;
55913;SDS011;58179;48.776;9.124;2023-08-07T00:24:16;31.15;;;8.48;;
55913;SDS011;58179;48.776;9.124;2023-08-07T00:26:43;22.73;;;8.65;;
55913;SDS011;58179;48.776;9.124;2023-08-07T00:29:09;24.42;;;8.27;;
55913;SDS011;58179;48.776;9.124;2023-08-07T00:31:36;26.10;;;8.40;;
55913;SDS011;58179;48.776;9.124;2023-08-07T00:34:02;23.67;;;8.30;;
55913;SDS011;58179;48.776;9.124;2023-08-07T00:36:29;23.88;;;7.85;;
55913;SDS011;58179;48.776;9.124;2023-08-07T00:38:56;28.08;;;9.10;;
55913;SDS011;58179;48.776;9.124;2023-08-07T00:41:22;21.15;;;8.48;;
55913;SDS011;58179;48.776;9.124;2023-08-07T00:43:50;21.23;;;7.97;;
55913;SDS011;58179;48.776;9.124;2023-08-07T00:46:16;24.23;;;8.65;;
55913;SDS011;58179;48.776;9.124;2023-08-07T00:48:42;19.05;;;7.70;;
55913;SDS011;58179;48.776;9.124;2023-08-07T00:51:09;23.97;;;8.33;;
55913;SDS011;58179;48.776;9.124;2023-08-07T00:53:37;21.02;;;7.43;;
55913;SDS011;58179;48.776;9.124;2023-08-07T00:56:04;20.15;;;8.00;;
55913;SDS011;58179;48.776;9.124;2023-08-07T00:58:31;25.20;;;7.53;;
55913;SDS011;58179;48.776;9.124;2023-08-07T01:01:00;17.58;;;7.50;;
55913;SDS011;58179;48.776;9.124;2023-08-07T01:03:26;23.40;;;7.83;;
55913;SDS011;58179;48.776;9.124;2023-08-07T01:05:52;16.92;;;7.05;;
55913;SDS011;58179;48.776;9.124;2023-08-07T01:08:19;17.50;;;6.80;;
55913;SDS011;58179;48.776;9.124;2023-08-07T01:10:49;29.77;;;8.48;;
55913;SDS011;58179;48.776;9.124;2023-08-07T01:13:28;21.80;;;7.90;;
55913;SDS011;58179;48.776;9.124;2023-08-07T01:15:59;21.92;;;7.93;;
55913;SDS011;58179;48.776;9.124;2023-08-07T01:18:32;18.08;;;7.28;;
55913;SDS011;58179;48.776;9.124;2023-08-07T01:20:59;18.55;;;7.43;;
55913;SDS011;58179;48.776;9.124;2023-08-07T01:23:29;22.15;;;7.28;;
55913;SDS011;58179;48.776;9.124;2023-08-07T01:25:55;21.23;;;8.15;;
55913;SDS011;58179;48.776;9.124;2023-08-07T01:28:22;25.42;;;8.77;;
55913;SDS011;58179;48.776;9.124;2023-08-07T01:30:54;24.43;;;8.50;;
55913;SDS011;58179;48.776;9.124;2023-08-07T01:33:24;22.80;;;7.82;;
55913;SDS011;58179;48.776;9.124;2023-08-07T01:36:01;20.15;;;8.10;;
55913;SDS011;58179;48.776;9.124;2023-08-07T01:38:33;26.88;;;8.85;;
55913;SDS011;58179;48.776;9.124;2023-08-07T01:41:00;23.73;;;7.50;;
55913;SDS011;58179;48.776;9.124;2023-08-07T01:43:27;30.65;;;9.45;;
55913;SDS011;58179;48.776;9.124;2023-08-07T01:45:56;28.23;;;8.98;;
55913;SDS011;58179;48.776;9.124;2023-08-07T01:48:23;24.20;;;8.23;;
55913;SDS011;58179;48.776;9.124;2023-08-07T01:50:49;24.58;;;9.10;;
55913;SDS011;58179;48.776;9.124;2023-08-07T01:53:15;24.55;;;8.15;;
55913;SDS011;58179;48.776;9.124;2023-08-07T01:55:43;27.00;;;8.45;;
55913;SDS011;58179;48.776;9.124;2023-08-07T01:58:09;19.42;;;7.57;;
55913;SDS011;58179;48.776;9.124;2023-08-07T02:00:35;18.95;;;7.55;;
55913;SDS011;58179;48.776;9.124;2023-08-07T02:03:01;21.35;;;7.90;;
55913;SDS011;58179;48.776;9.124;2023-08-07T02:05:28;19.85;;;7.78;;
55913;SDS011;58179;48.776;9.124;2023-08-07T02:07:54;26.45;;;8.20;;
55913;SDS011;58179;48.776;9.124;2023-08-07T02:10:21;23.77;;;7.63;;
55913;SDS011;58179;48.776;9.124;2023-08-07T02:12:49;23.30;;;7.68;;
55913;SDS011;58179;48.776;9.124;2023-08-07T02:15:15;21.25;;;7.07;;
55913;SDS011;58179;48.776;9.124;2023-08-07T02:17:41;17.25;;;7.05;;
55913;SDS011;58179;48.776;9.124;2023-08-07T02:20:08;17.20;;;6.70;;
55913;SDS011;58179;48.776;9.124;2023-08-07T02:22:35;19.90;;;7.55;;
55913;SDS011;58179;48.776;9.124;2023-08-07T02:25:01;21.40;;;7.80;;
55913;SDS011;58179;48.776;9.124;2023-08-07T02:27:28;23.60;;;7.80;;
55913;SDS011;58179;48.776;9.124;2023-08-07T02:29:55;22.88;;;7.30;;
55913;SDS011;58179;48.776;9.124;2023-08-07T02:32:21;25.88;;;8.10;;
55913;SDS011;58179;48.776;9.124;2023-08-07T02:34:48;23.17;;;7.32;;
55913;SDS011;58179;48.776;9.124;2023-08-07T02:37:14;27.27;;;8.32;;
55913;SDS011;58179;48.776;9.124;2023-08-07T02:39:41;20.93;;;8.00;;
55913;SDS011;58179;48.776;9.124;2023-08-07T02:42:08;22.10;;;7.28;;
55913;SDS011;58179;48.776;9.124;2023-08-07T02:44:34;28.43;;;8.43;;
55913;SDS011;58179;48.776;9.124;2023-08-07T02:47:01;21.80;;;7.80;;
55913;SDS011;58179;48.776;9.124;2023-08-07T02:49:28;25.20;;;8.05;;
55913;SDS011;58179;48.776;9.124;2023-08-07T02:51:54;24.08;;;7.93;;
55913;SDS011;58179;48.776;9.124;2023-08-07T02:54:20;27.15;;;8.50;;
55913;SDS011;58179;48.776;9.124;2023-08-07T02:56:46;24.85;;;7.78;;
55913;SDS011;58179;48.776;9.124;2023-08-07T02:59:14;26.77;;;7.75;;
55913;SDS011;58179;48.776;9.124;2023-08-07T03:01:40;22.50;;;7.80;;
55913;SDS011;58179;48.776;9.124;2023-08-07T03:04:08;19.42;;;7.18;;
55913;SDS011;58179;48.776;9.124;2023-08-07T03:06:34;27.02;;;7.72;;
55913;SDS011;58179;48.776;9.124;2023-08-07T03:09:01;20.60;;;7.18;;
55913;SDS011;58179;48.776;9.124;2023-08-07T03:11:27;23.63;;;7.50;;
55913;SDS011;58179;48.776;9.124;2023-08-07T03:13:53;25.73;;;7.22;;
55913;SDS011;58179;48.776;9.124;2023-08-07T03:16:19;26.27;;;7.35;;
55913;SDS011;58179;48.776;9.124;2023-08-07T03:18:45;18.33;;;6.47;;
55913;SDS011;58179;48.776;9.124;2023-08-07T03:21:13;27.77;;;7.47;;
55913;SDS011;58179;48.776;9.124;2023-08-07T03:23:39;21.27;;;6.88;;
55913;SDS011;58179;48.776;9.124;2023-08-07T03:26:06;22.30;;;7.07;;
55913;SDS011;58179;48.776;9.124;2023-08-07T03:28:34;20.25;;;6.40;;
55913;SDS011;58179;48.776;9.124;2023-08-07T03:31:01;26.55;;;7.07;;
55913;SDS011;58179;48.776;9.124;2023-08-07T03:33:27;24.70;;;6.80;;
55913;SDS011;58179;48.776;9.124;2023-08-07T03:35:54;23.27;;;6.65;;
55913;SDS011;58179;48.776;9.124;2023-08-07T03:38:21;20.03;;;6.20;;
55913;SDS011;58179;48.776;9.124;2023-08-07T03:40:48;20.40;;;6.10;;
55913;SDS011;58179;48.776;9.124;2023-08-07T03:43:14;26.85;;;7.38;;
55913;SDS011;58179;48.776;9.124;2023-08-07T03:45:40;18.63;;;5.93;;
55913;SDS011;58179;48.776;9.124;2023-08-07T03:48:06;21.38;;;6.05;;
55913;SDS011;58179;48.776;9.124;2023-08-07T03:50:32;21.23;;;6.35;;
55913;SDS011;58179;48.776;9.124;2023-08-07T03:53:02;20.35;;;5.93;;
55913;SDS011;58179;48.776;9.124;2023-08-07T03:55:30;19.75;;;6.00;;
55913;SDS011;58179;48.776;9.124;2023-08-07T03:57:56;25.17;;;6.32;;
55913;SDS011;58179;48.776;9.124;2023-08-07T04:00:22;27.45;;;6.47;;
55913;SDS011;58179;48.776;9.124;2023-08-07T04:02:48;15.70;;;5.85;;
55913;SDS011;58179;48.776;9.124;2023-08-07T04:05:15;21.88;;;6.07;;
55913;SDS011;58179;48.776;9.124;2023-08-07T04:07:41;26.75;;;6.35;;
55913;SDS011;58179;48.776;9.124;2023-08-07T04:10:07;20.45;;;5.95;;
55913;SDS011;58179;48.776;9.124;2023-08-07T04:12:35;18.23;;;5.95;;
55913;SDS011;58179;48.776;9.124;2023-08-07T04:15:02;24.20;;;6.38;;
55913;SDS011;58179;48.776;9.124;2023-08-07T04:17:28;20.35;;;6.05;;
55913;SDS011;58179;48.776;9.124;2023-08-07T04:19:54;25.50;;;5.60;;
55913;SDS011;58179;48.776;9.124;2023-08-07T04:22:20;15.30;;;5.45;;
55913;SDS011;58179;48.776;9.124;2023-08-07T04:24:47;21.42;;;6.80;;
55913;SDS011;58179;48.776;9.124;2023-08-07T04:27:13;24.35;;;6.65;;
55913;SDS011;58179;48.776;9.124;2023-08-07T04:29:40;25.00;;;6.72;;
55913;SDS011;58179;48.776;9.124;2023-08-07T04:32:07;20.63;;;6.38;;
55913;SDS011;58179;48.776;9.124;2023-08-07T04:34:33;20.10;;;6.30;;
55913;SDS011;58179;48.776;9.124;2023-08-07T04:37:00;22.60;;;6.70;;
55913;SDS011;58179;48.776;9.124;2023-08-07T04:39:26;19.38;;;6.10;;
55913;SDS011;58179;48.776;9.124;2023-08-07T04:41:52;26.90;;;6.60;;
55913;SDS011;58179;48.776;9.124;2023-08-07T04:44:18;24.67;;;6.38;;
55913;SDS011;58179;48.776;9.124;2023-08-07T04:46:46;17.33;;;5.50;;
55913;SDS011;58179;48.776;9.124;2023-08-07T04:49:12;13.48;;;5.70;;
55913;SDS011;58179;48.776;9.124;2023-08-07T04:51:39;18.27;;;5.90;;
55913;SDS011;58179;48.776;9.124;2023-08-07T04:54:05;27.38;;;6.35;;
55913;SDS011;58179;48.776;9.124;2023-08-07T04:56:31;19.90;;;6.10;;
55913;SDS011;58179;48.776;9.124;2023-08-07T04:58:57;22.60;;;5.82;;
55913;SDS011;58179;48.776;9.124;2023-08-07T05:01:24;26.08;;;6.30;;
55913;SDS011;58179;48.776;9.124;2023-08-07T05:03:51;20.00;;;6.00;;
55913;SDS011;58179;48.776;9.124;2023-08-07T05:06:18;15.30;;;5.00;;
55913;SDS011;58179;48.776;9.124;2023-08-07T05:08:44;18.00;;;5.25;;
55913;SDS011;58179;48.776;9.124;2023-08-07T05:11:10;17.73;;;4.70;;
55913;SDS011;58179;48.776;9.124;2023-08-07T05:13:37;17.60;;;5.25;;
55913;SDS011;58179;48.776;9.124;2023-08-07T05:16:03;17.23;;;5.53;;
55913;SDS011;58179;48.776;9.124;2023-08-07T05:18:29;21.48;;;5.18;;
55913;SDS011;58179;48.776;9.124;2023-08-07T05:20:57;13.75;;;4.78;;
55913;SDS011;58179;48.776;9.124;2023-08-07T05:23:23;18.37;;;4.93;;
55913;SDS011;58179;48.776;9.124;2023-08-07T05:25:49;16.60;;;4.78;;
55913;SDS011;58179;48.776;9.124;2023-08-07T05:28:16;12.73;;;4.60;;
55913;SDS011;58179;48.776;9.124;2023-08-07T05:30:42;12.05;;;4.50;;
55913;SDS011;58179;48.776;9.124;2023-08-07T05:33:09;15.75;;;4.88;;
55913;SDS011;58179;48.776;9.124;2023-08-07T05:35:37;10.27;;;4.30;;
55913;SDS011;58179;48.776;9.124;2023-08-07T05:38:05;12.40;;;4.43;;
55913;SDS011;58179;48.776;9.124;2023-08-07T05:40:31;16.88;;;5.38;;
55913;SDS011;58179;48.776;9.124;2023-08-07T05:43:00;12.18;;;4.20;;
55913;SDS011;58179;48.776;9.124;2023-08-07T05:45:26;8.70;;;3.95;;
55913;SDS011;58179;48.776;9.124;2023-08-07T05:47:53;9.45;;;4.30;;
55913;SDS011;58179;48.776;9.124;2023-08-07T05:50:19;13.50;;;4.05;;
55913;SDS011;58179;48.776;9.124;2023-08-07T05:52:45;12.57;;;4.13;;
55913;SDS011;58179;48.776;9.124;2023-08-07T05:55:13;14.00;;;4.10;;
55913;SDS011;58179;48.776;9.124;2023-08-07T05:57:39;18.15;;;4.53;;
55913;SDS011;58179;48.776;9.124;2023-08-07T06:00:06;15.18;;;4.25;;
55913;SDS011;58179;48.776;9.124;2023-08-07T06:02:33;11.47;;;4.03;;
55913;SDS011;58179;48.776;9.124;2023-08-07T06:04:59;9.75;;;3.75;;
55913;SDS011;58179;48.776;9.124;2023-08-07T06:07:25;13.00;;;4.43;;
55913;SDS011;58179;48.776;9.124;2023-08-07T06:09:51;9.32;;;3.90;;
55913;SDS011;58179;48.776;9.124;2023-08-07T06:12:19;8.57;;;3.55;;
55913;SDS011;58179;48.776;9.124;2023-08-07T06:14:45;14.82;;;4.38;;
55913;SDS011;58179;48.776;9.124;2023-08-07T06:17:11;19.43;;;4.63;;
55913;SDS011;58179;48.776;9.124;2023-08-07T06:19:37;10.63;;;3.90;;
55913;SDS011;58179;48.776;9.124;2023-08-07T06:22:04;12.57;;;4.03;;
55913;SDS011;58179;48.776;9.124;2023-08-07T06:24:30;22.45;;;4.20;;
55913;SDS011;58179;48.776;9.124;2023-08-07T06:26:56;13.80;;;4.00;;
55913;SDS011;58179;48.776;9.124;2023-08-07T06:29:24;14.20;;;3.83;;
55913;SDS011;58179;48.776;9.124;2023-08-07T06:31:50;12.30;;;4.10;;
55913;SDS011;58179;48.776;9.124;2023-08-07T06:34:16;13.47;;;3.70;;
55913;SDS011;58179;48.776;9.124;2023-08-07T06:36:42;10.45;;;4.28;;
55913;SDS011;58179;48.776;9.124;2023-08-07T06:39:09;16.50;;;4.63;;
55913;SDS011;58179;48.776;9.124;2023-08-07T06:41:35;15.13;;;4.20;;
55913;SDS011;58179;48.776;9.124;2023-08-07T06:44:02;11.32;;;3.88;;
55913;SDS011;58179;48.776;9.124;2023-08-07T06:46:30;23.13;;;4.97;;
55913;SDS011;58179;48.776;9.124;2023-08-07T06:48:56;11.43;;;4.22;;
55913;SDS011;58179;48.776;9.124;2023-08-07T06:51:22;9.93;;;3.63;;
55913;SDS011;58179;48.776;9.124;2023-08-07T06:53:48;13.30;;;4.00;;
55913;SDS011;58179;48.776;9.124;2023-08-07T06:56:15;11.10;;;3.60;;
55913;SDS011;58179;48.776;9.124;2023-08-07T06:58:41;7.10;;;3.40;;
55913;SDS011;58179;48.776;9.124;2023-08-07T07:01:07;5.18;;;2.90;;
55913;SDS011;58179;48.776;9.124;2023-08-07T07:03:34;10.75;;;3.08;;
55913;SDS011;58179;48.776;9.124;2023-08-07T07:06:01;6.05;;;3.17;;
55913;SDS011;58179;48.776;9.124;2023-08-07T07:08:27;8.75;;;2.90;;
55913;SDS011;58179;48.776;9.124;2023-08-07T07:10:53;9.37;;;3.20;;
55913;SDS011;58179;48.776;9.124;2023-08-07T07:13:19;5.70;;;2.88;;
55913;SDS011;58179;48.776;9.124;2023-08-07T07:15:46;8.00;;;2.90;;
55913;SDS011;58179;48.776;9.124;2023-08-07T07:18:17;6.80;;;2.80;;
55913;SDS011;58179;48.776;9.124;2023-08-07T07:20:44;5.28;;;2.70;;
55913;SDS011;58179;48.776;9.124;2023-08-07T07:23:10;5.90;;;2.72;;
55913;SDS011;58179;48.776;9.124;2023-08-07T07:25:37;7.97;;;3.40;;
55913;SDS011;58179;48.776;9.124;2023-08-07T07:28:03;10.27;;;3.53;;
55913;SDS011;58179;48.776;9.124;2023-08-07T07:30:29;8.27;;;2.97;;
55913;SDS011;58179;48.776;9.124;2023-08-07T07:32:55;4.28;;;2.83;;
55913;SDS011;58179;48.776;9.124;2023-08-07T07:35:21;6.22;;;3.17;;
55913;SDS011;58179;48.776;9.124;2023-08-07T07:37:49;6.38;;;2.88;;
55913;SDS011;58179;48.776;9.124;2023-08-07T07:40:15;6.53;;;2.90;;
55913;SDS011;58179;48.776;9.124;2023-08-07T07:42:42;10.63;;;3.13;;
55913;SDS011;58179;48.776;9.124;2023-08-07T07:45:08;8.25;;;3.20;;
55913;SDS011;58179;48.776;9.124;2023-08-07T07:47:34;4.75;;;2.90;;
55913;SDS011;58179;48.776;9.124;2023-08-07T07:50:04;5.15;;;3.00;;
55913;SDS011;58179;48.776;9.124;2023-08-07T07:52:32;3.90;;;2.80;;
55913;SDS011;58179;48.776;9.124;2023-08-07T07:55:00;5.88;;;2.40;;
55913;SDS011;58179;48.776;9.124;2023-08-07T07:57:26;7.20;;;2.80;;
55913;SDS011;58179;48.776;9.124;2023-08-07T07:59:52;11.10;;;2.37;;
55913;SDS011;58179;48.776;9.124;2023-08-07T08:02:19;6.25;;;2.53;;
55913;SDS011;58179;48.776;9.124;2023-08-07T08:04:45;5.82;;;2.85;;
55913;SDS011;58179;48.776;9.124;2023-08-07T08:07:13;7.13;;;2.60;;
55913;SDS011;58179;48.776;9.124;2023-08-07T08:09:39;7.90;;;2.50;;
55913;SDS011;58179;48.776;9.124;2023-08-07T08:12:07;4.63;;;2.50;;
55913;SDS011;58179;48.776;9.124;2023-08-07T08:14:34;3.90;;;2.30;;
55913;SDS011;58179;48.776;9.124;2023-08-07T08:17:00;4.82;;;2.50;;
55913;SDS011;58179;48.776;9.124;2023-08-07T08:19:26;5.72;;;2.50;;
55913;SDS011;58179;48.776;9.124;2023-08-07T08:21:52;4.47;;;2.85;;
55913;SDS011;58179;48.776;9.124;2023-08-07T08:24:18;5.22;;;2.20;;
55913;SDS011;58179;48.776;9.124;2023-08-07T08:26:45;5.93;;;2.50;;
55913;SDS011;58179;48.776;9.124;2023-08-07T08:29:15;4.85;;;2.20;;
55913;SDS011;58179;48.776;9.124;2023-08-07T08:31:41;3.50;;;2.28;;
55913;SDS011;58179;48.776;9.124;2023-08-07T08:34:07;8.02;;;2.50;;
55913;SDS011;58179;48.776;9.124;2023-08-07T08:36:33;3.38;;;2.13;;
55913;SDS011;58179;48.776;9.124;2023-08-07T08:38:59;5.40;;;2.40;;
55913;SDS011;58179;48.776;9.124;2023-08-07T08:41:26;3.83;;;2.50;;
55913;SDS011;58179;48.776;9.124;2023-08-07T08:43:53;3.40;;;2.05;;
55913;SDS011;58179;48.776;9.124;2023-08-07T08:46:22;6.90;;;2.47;;
55913;SDS011;58179;48.776;9.124;2023-08-07T08:48:54;5.63;;;2.00;;
55913;SDS011;58179;48.776;9.124;2023-08-07T08:51:23;3.70;;;1.80;;
55913;SDS011;58179;48.776;9.124;2023-08-07T08:53:50;2.25;;;1.75;;
55913;SDS011;58179;48.776;9.124;2023-08-07T08:56:18;2.33;;;1.77;;
55913;SDS011;58179;48.776;9.124;2023-08-07T08:58:47;2.58;;;1.98;;
55913;SDS011;58179;48.776;9.124;2023-08-07T09:01:14;4.05;;;1.88;;
55913;SDS011;58179;48.776;9.124;2023-08-07T09:03:43;3.08;;;1.60;;
55913;SDS011;58179;48.776;9.124;2023-08-07T09:06:10;1.67;;;1.42;;
55913;SDS011;58179;48.776;9.124;2023-08-07T09:08:38;2.88;;;1.85;;
55913;SDS011;58179;48.776;9.124;2023-08-07T09:11:06;3.70;;;1.77;;
55913;SDS011;58179;48.776;9.124;2023-08-07T09:13:33;2.50;;;1.73;;
55913;SDS011;58179;48.776;9.124;2023-08-07T09:16:01;2.70;;;1.60;;
55913;SDS011;58179;48.776;9.124;2023-08-07T09:18:28;5.03;;;2.03;;
55913;SDS011;58179;48.776;9.124;2023-08-07T09:20:55;4.72;;;2.08;;
55913;SDS011;58179;48.776;9.124;2023-08-07T09:23:24;4.47;;;2.00;;
55913;SDS011;58179;48.776;9.124;2023-08-07T09:25:58;4.60;;;1.90;;
55913;SDS011;58179;48.776;9.124;2023-08-07T09:28:24;3.95;;;1.70;;
55913;SDS011;58179;48.776;9.124;2023-08-07T09:30:51;2.38;;;1.70;;
55913;SDS011;58179;48.776;9.124;2023-08-07T09:33:21;3.83;;;1.77;;
55913;SDS011;58179;48.776;9.124;2023-08-07T09:35:50;2.60;;;1.75;;
55913;SDS011;58179;48.776;9.124;2023-08-07T09:38:18;4.35;;;1.85;;
55913;SDS011;58179;48.776;9.124;2023-08-07T09:40:48;3.47;;;1.70;;
55913;SDS011;58179;48.776;9.124;2023-08-07T09:43:20;6.25;;;2.00;;
55913;SDS011;58179;48.776;9.124;2023-08-07T09:45:47;3.75;;;1.88;;
55913;SDS011;58179;48.776;9.124;2023-08-07T09:48:20;3.65;;;1.75;;
55913;SDS011;58179;48.776;9.124;2023-08-07T09:50:52;3.03;;;2.07;;
55913;SDS011;58179;48.776;9.124;2023-08-07T09:53:26;3.92;;;1.92;;
55913;SDS011;58179;48.776;9.124;2023-08-07T09:55:55;3.08;;;2.00;;
55913;SDS011;58179;48.776;9.124;2023-08-07T09:58:22;5.22;;;2.10;;
55913;SDS011;58179;48.776;9.124;2023-08-07T10:00:49;3.53;;;2.00;;
55913;SDS011;58179;48.776;9.124;2023-08-07T10:03:20;4.28;;;1.92;;
55913;SDS011;58179;48.776;9.124;2023-08-07T10:05:48;3.05;;;1.90;;
55913;SDS011;58179;48.776;9.124;2023-08-07T10:08:15;3.38;;;1.98;;
55913;SDS011;58179;48.776;9.124;2023-08-07T10:10:43;2.42;;;1.90;;
55913;SDS011;58179;48.776;9.124;2023-08-07T10:13:11;5.45;;;2.03;;
55913;SDS011;58179;48.776;9.124;2023-08-07T10:15:38;2.85;;;1.92;;
55913;SDS011;58179;48.776;9.124;2023-08-07T10:18:07;3.30;;;2.05;;
55913;SDS011;58179;48.776;9.124;2023-08-07T10:20:33;4.57;;;2.00;;
55913;SDS011;58179;48.776;9.124;2023-08-07T10:23:03;4.15;;;1.92;;
55913;SDS011;58179;48.776;9.124;2023-08-07T10:25:32;2.85;;;2.03;;
55913;SDS011;58179;48.776;9.124;2023-08-07T10:28:00;5.20;;;2.03;;
55913;SDS011;58179;48.776;9.124;2023-08-07T10:30:30;3.35;;;2.05;;
55913;SDS011;58179;48.776;9.124;2023-08-07T10:32:59;2.47;;;2.00;;
55913;SDS011;58179;48.776;9.124;2023-08-07T10:35:26;4.80;;;2.30;;
55913;SDS011;58179;48.776;9.124;2023-08-07T10:38:04;3.40;;;2.30;;
55913;SDS011;58179;48.776;9.124;2023-08-07T10:40:32;4.50;;;2.00;;
55913;SDS011;58179;48.776;9.124;2023-08-07T10:42:59;3.00;;;2.00;;
55913;SDS011;58179;48.776;9.124;2023-08-07T10:45:37;4.97;;;2.10;;
55913;SDS011;58179;48.776;9.124;2023-08-07T10:48:05;4.93;;;2.13;;
55913;SDS011;58179;48.776;9.124;2023-08-07T10:50:35;4.23;;;2.00;;
55913;SDS011;58179;48.776;9.124;2023-08-07T10:53:18;3.13;;;2.00;;
55913;SDS011;58179;48.776;9.124;2023-08-07T10:55:46;4.53;;;2.03;;
55913;SDS011;58179;48.776;9.124;2023-08-07T10:58:26;3.97;;;2.28;;
55913;SDS011;58179;48.776;9.124;2023-08-07T11:03:50;7.28;;;2.42;;
55913;SDS011;58179;48.776;9.124;2023-08-07T11:06:18;3.50;;;2.13;;
55913;SDS011;58179;48.776;9.124;2023-08-07T11:08:47;4.35;;;2.20;;
55913;SDS011;58179;48.776;9.124;2023-08-07T11:11:13;2.58;;;2.00;;
55913;SDS011;58179;48.776;9.124;2023-08-07T11:13:41;4.78;;;2.00;;
55913;SDS011;58179;48.776;9.124;2023-08-07T11:16:07;5.63;;;2.30;;
55913;SDS011;58179;48.776;9.124;2023-08-07T11:18:34;4.97;;;2.42;;
55913;SDS011;58179;48.776;9.124;2023-08-07T11:21:06;3.42;;;2.35;;
55913;SDS011;58179;48.776;9.124;2023-08-07T11:23:33;3.75;;;2.05;;
55913;SDS011;58179;48.776;9.124;2023-08-07T11:26:00;6.17;;;2.53;;
55913;SDS011;58179;48.776;9.124;2023-08-07T11:28:28;4.80;;;2.78;;
55913;SDS011;58179;48.776;9.124;2023-08-07T11:30:57;5.60;;;2.60;;
55913;SDS011;58179;48.776;9.124;2023-08-07T11:33:24;3.83;;;2.30;;
55913;SDS011;58179;48.776;9.124;2023-08-07T11:35:52;2.83;;;2.33;;
55913;SDS011;58179;48.776;9.124;2023-08-07T11:38:29;2.78;;;2.45;;
55913;SDS011;58179;48.776;9.124;2023-08-07T11:40:57;5.38;;;2.83;;
55913;SDS011;58179;48.776;9.124;2023-08-07T11:43:26;3.97;;;2.47;;
55913;SDS011;58179;48.776;9.124;2023-08-07T11:45:53;5.30;;;2.75;;
55913;SDS011;58179;48.776;9.124;2023-08-07T11:48:22;4.75;;;2.90;;
55913;SDS011;58179;48.776;9.124;2023-08-07T11:50:51;5.40;;;2.83;;
55913;SDS011;58179;48.776;9.124;2023-08-07T11:53:17;4.35;;;2.70;;
55913;SDS011;58179;48.776;9.124;2023-08-07T11:55:47;4.57;;;2.92;;
55913;SDS011;58179;48.776;9.124;2023-08-07T11:58:17;4.75;;;2.70;;
55913;SDS011;58179;48.776;9.124;2023-08-07T12:00:43;4.55;;;3.00;;
55913;SDS011;58179;48.776;9.124;2023-08-07T12:03:24;3.72;;;2.90;;
55913;SDS011;58179;48.776;9.124;2023-08-07T12:05:52;2.88;;;2.53;;
55913;SDS011;58179;48.776;9.124;2023-08-07T12:08:19;3.35;;;2.47;;
55913;SDS011;58179;48.776;9.124;2023-08-07T12:10:48;3.30;;;2.60;;
55913;SDS011;58179;48.776;9.124;2023-08-07T12:13:15;5.97;;;2.60;;
55913;SDS011;58179;48.776;9.124;2023-08-07T12:15:41;4.13;;;2.65;;
55913;SDS011;58179;48.776;9.124;2023-08-07T12:18:08;3.90;;;2.58;;
55913;SDS011;58179;48.776;9.124;2023-08-07T12:20:35;3.97;;;2.55;;
55913;SDS011;58179;48.776;9.124;2023-08-07T12:23:01;3.70;;;2.63;;
55913;SDS011;58179;48.776;9.124;2023-08-07T12:25:28;5.68;;;2.75;;
55913;SDS011;58179;48.776;9.124;2023-08-07T12:27:54;4.47;;;3.00;;
55913;SDS011;58179;48.776;9.124;2023-08-07T12:30:20;4.93;;;2.72;;
55913;SDS011;58179;48.776;9.124;2023-08-07T12:32:46;3.33;;;2.42;;
55913;SDS011;58179;48.776;9.124;2023-08-07T12:35:12;6.07;;;2.70;;
55913;SDS011;58179;48.776;9.124;2023-08-07T12:37:40;4.55;;;2.53;;
55913;SDS011;58179;48.776;9.124;2023-08-07T12:40:06;3.08;;;2.33;;
55913;SDS011;58179;48.776;9.124;2023-08-07T12:42:33;3.88;;;2.55;;
55913;SDS011;58179;48.776;9.124;2023-08-07T12:44:59;2.72;;;2.17;;
55913;SDS011;58179;48.776;9.124;2023-08-07T12:47:25;5.80;;;2.60;;
55913;SDS011;58179;48.776;9.124;2023-08-07T12:49:51;3.95;;;2.47;;
55913;SDS011;58179;48.776;9.124;2023-08-07T12:52:18;2.90;;;2.22;;
55913;SDS011;58179;48.776;9.124;2023-08-07T12:54:45;3.73;;;2.20;;
55913;SDS011;58179;48.776;9.124;2023-08-07T12:57:11;3.00;;;2.15;;
55913;SDS011;58179;48.776;9.124;2023-08-07T12:59:37;2.67;;;1.90;;
55913;SDS011;58179;48.776;9.124;2023-08-07T13:02:04;4.55;;;2.05;;
55913;SDS011;58179;48.776;9.124;2023-08-07T13:04:30;4.05;;;2.28;;
55913;SDS011;58179;48.776;9.124;2023-08-07T13:06:58;4.47;;;2.28;;
55913;SDS011;58179;48.776;9.124;2023-08-07T13:09:24;3.97;;;2.33;;
55913;SDS011;58179;48.776;9.124;2023-08-07T13:11:51;4.53;;;2.42;;
55913;SDS011;58179;48.776;9.124;2023-08-07T13:14:18;6.10;;;2.40;;
55913;SDS011;58179;48.776;9.124;2023-08-07T13:16:44;3.90;;;2.10;;
55913;SDS011;58179;48.776;9.124;2023-08-07T13:19:10;5.57;;;2.15;;
55913;SDS011;58179;48.776;9.124;2023-08-07T13:21:36;2.75;;;2.10;;
55913;SDS011;58179;48.776;9.124;2023-08-07T13:24:03;5.30;;;2.30;;
55913;SDS011;58179;48.776;9.124;2023-08-07T13:26:30;4.25;;;2.60;;
55913;SDS011;58179;48.776;9.124;2023-08-07T13:28:57;4.38;;;2.47;;
55913;SDS011;58179;48.776;9.124;2023-08-07T13:31:23;4.05;;;2.78;;
55913;SDS011;58179;48.776;9.124;2023-08-07T13:33:50;4.38;;;2.75;;
55913;SDS011;58179;48.776;9.124;2023-08-07T13:36:16;4.70;;;2.60;;
55913;SDS011;58179;48.776;9.124;2023-08-07T13:38:42;4.72;;;2.40;;
55913;SDS011;58179;48.776;9.124;2023-08-07T13:41:08;2.70;;;2.25;;
55913;SDS011;58179;48.776;9.124;2023-08-07T13:43:36;4.18;;;2.10;;
55913;SDS011;58179;48.776;9.124;2023-08-07T13:46:04;3.65;;;2.08;;
55913;SDS011;58179;48.776;9.124;2023-08-07T13:48:30;2.75;;;2.20;;
55913;SDS011;58179;48.776;9.124;2023-08-07T13:50:58;2.63;;;1.85;;
55913;SDS011;58179;48.776;9.124;2023-08-07T13:53:25;1.95;;;1.75;;
55913;SDS011;58179;48.776;9.124;2023-08-07T13:55:54;2.88;;;2.38;;
55913;SDS011;58179;48.776;9.124;2023-08-07T13:58:20;2.58;;;1.92;;
55913;SDS011;58179;48.776;9.124;2023-08-07T14:00:46;7.35;;;2.33;;
55913;SDS011;58179;48.776;9.124;2023-08-07T14:03:14;3.38;;;2.08;;
55913;SDS011;58179;48.776;9.124;2023-08-07T14:05:40;3.22;;;2.35;;
55913;SDS011;58179;48.776;9.124;2023-08-07T14:08:07;5.13;;;2.30;;
55913;SDS011;58179;48.776;9.124;2023-08-07T14:10:35;3.90;;;2.33;;
55913;SDS011;58179;48.776;9.124;2023-08-07T14:13:04;2.72;;;2.00;;
55913;SDS011;58179;48.776;9.124;2023-08-07T14:15:30;3.80;;;2.10;;
55913;SDS011;58179;48.776;9.124;2023-08-07T14:17:56;3.88;;;2.05;;
55913;SDS011;58179;48.776;9.124;2023-08-07T14:20:25;3.23;;;2.30;;
55913;SDS011;58179;48.776;9.124;2023-08-07T14:22:51;3.13;;;2.40;;
55913;SDS011;58179;48.776;9.124;2023-08-07T14:25:17;3.35;;;2.05;;
55913;SDS011;58179;48.776;9.124;2023-08-07T14:27:46;5.45;;;2.28;;
55913;SDS011;58179;48.776;9.124;2023-08-07T14:30:12;4.35;;;2.25;;
55913;SDS011;58179;48.776;9.124;2023-08-07T14:32:39;3.40;;;2.20;;
55913;SDS011;58179;48.776;9.124;2023-08-07T14:35:05;4.10;;;2.45;;
55913;SDS011;58179;48.776;9.124;2023-08-07T14:37:33;3.33;;;2.40;;
55913;SDS011;58179;48.776;9.124;2023-08-07T14:39:59;2.53;;;2.03;;
55913;SDS011;58179;48.776;9.124;2023-08-07T14:42:27;3.58;;;2.20;;
55913;SDS011;58179;48.776;9.124;2023-08-07T14:44:53;3.08;;;2.30;;